Flight Track Log - Related Links

Times and Time Zones

All times are in EST time to prevent confusion due to time zone crossing. See the ASQ5685 flight status page for this flight to view local times or setup timezone preferences in your user account.

Time Position Orientation Groundspeed Altitude Reporting Facility
EST Latitude Longitude Course Direction KTS MPH feet Rate Location/Type
Tue 09:47:19 AM 33.6333 -84.3667 69° East 190 219 2,400  Level Atlanta TRACON
Tue 09:48:19 AM 33.6333 -84.2833 90° East 269 310 4,600 2,400 Climbing Atlanta TRACON
Tue 09:49:00 AM 33.8819 -84.1364 54° Northeast  Level Estimated
Tue 09:49:19 AM 33.6333 -84.2000 90° East 295 339 7,200  Level Atlanta TRACON
Tue 09:50:00 AM 33.9635 -84.0389 53° Northeast  Level Estimated
Tue 09:50:42 AM 33.6564 -84.0714 78° East 328 377 10,400  Level Atlanta Center
Tue 09:51:00 AM 34.0046 -83.9095 69° East  Level FlightAware Approximate
Tue 09:51:42 AM 33.7192 -83.9864 48° Northeast 315 362 11,600  Level Atlanta Center
Tue 09:52:00 AM 34.0456 -83.7799 69° East  Level FlightAware Approximate
Tue 09:52:42 AM 33.7900 -83.8989 46° Northeast 350 403 13,300  Level Atlanta Center
Tue 09:53:42 AM 33.8628 -83.8036 47° Northeast 374 430 15,300 1,850 Climbing Atlanta Center
Tue 09:54:42 AM 33.9336 -83.7083 48° Northeast 379 436 17,000 1,550 Climbing Atlanta Center
Tue 09:55:42 AM 34.0022 -83.6028 52° Northeast 392 451 18,400 1,450 Climbing Atlanta Center
Tue 09:56:42 AM 34.0686 -83.4947 53° Northeast 402 463 19,900 1,400 Climbing Atlanta Center
Tue 09:57:42 AM 34.1369 -83.3839 53° Northeast 409 471 21,200 1,400 Climbing Atlanta Center
Tue 09:58:42 AM 34.2114 -83.2650 53° Northeast 409 471 22,700 1,100 Climbing Atlanta Center
Tue 09:59:42 AM 34.2794 -83.1539 53° Northeast 409 471 23,400 650 Climbing Atlanta Center
Tue 10:00:42 AM 34.3475 -83.0400 54° Northeast 415 478 24,000 800 Climbing Atlanta Center
Tue 10:01:42 AM 34.4217 -82.9233 52° Northeast 420 483 25,000 500 Climbing Atlanta Center
Tue 10:02:42 AM 34.4872 -82.8114 55° Northeast 414 476 25,000  Level Atlanta Center
Tue 10:03:42 AM 34.5531 -82.7072 52° Northeast 402 463 25,000 400 Level Atlanta Center
Tue 10:04:42 AM 34.6206 -82.5975 53° Northeast 394 453 25,800 950 Climbing Atlanta Center
Tue 10:05:42 AM 34.6147 -82.4639 93° East 371 427 26,900 600 Climbing Atlanta Center
Tue 10:06:42 AM 34.5692 -82.3233 111° Southeast 398 458 27,000 250 Climbing Atlanta Center
Tue 10:07:42 AM 34.5211 -82.1806 112° Southeast 419 482 27,400 700 Climbing Atlanta Center
Tue 10:08:42 AM 34.4731 -82.0381 112° Southeast 440 506 28,400 1,000 Climbing Atlanta Center
Tue 10:09:42 AM 34.4997 -81.8989 77° East 402 463 29,400 750 Climbing Atlanta Center
Tue 10:10:42 AM 34.5856 -81.7983 44° Northeast 378 435 29,900 500 Climbing Atlanta Center
Tue 10:11:42 AM 34.6736 -81.6975 43° Northeast 407 468 30,400 500 Climbing Atlanta Center
Tue 10:12:42 AM 34.7592 -81.5939 45° Northeast 413 475 30,900 300 Climbing Atlanta Center
Tue 10:13:42 AM 34.8467 -81.4825 46° Northeast 429 494 31,000 50 Climbing Atlanta Center
Tue 10:14:42 AM 34.9319 -81.3786 45° Northeast 434 499 31,000  Level Atlanta Center
Tue 10:15:42 AM 35.0172 -81.2719 46° Northeast 434 499 31,000  Level Atlanta Center
Tue 10:16:42 AM 35.1025 -81.1650 46° Northeast 434 499 31,000  Level Atlanta Center
Tue 10:17:42 AM 35.1878 -81.0653 44° Northeast 429 494 31,000  Level Atlanta Center
Tue 10:18:42 AM 35.2728 -80.9631 44° Northeast 423 487 31,000  Level Atlanta Center
Tue 10:19:42 AM 35.3514 -80.8481 50° Northeast 423 487 31,000  Level Atlanta Center
Tue 10:20:42 AM 35.4361 -80.7456 45° Northeast 429 494 31,000  Level Atlanta Center
Tue 10:21:42 AM 35.5131 -80.6506 45° Northeast 429 494 31,000  Level Atlanta Center
Tue 10:22:42 AM 35.5956 -80.5475 45° Northeast 424 488 31,000  Level Atlanta Center
Tue 10:23:42 AM 35.6781 -80.4392 47° Northeast 424 488 31,000  Level Atlanta Center
Tue 10:25:49 AM 35.8492 -80.2278 45° Northeast 418 481 31,000  Level Washington Center
Tue 10:26:50 AM 35.9344 -80.1250 44° Northeast 418 481 31,000  Level Washington Center
Tue 10:27:51 AM 36.0136 -80.0192 47° Northeast 418 481 31,000  Level Washington Center
Tue 10:28:51 AM 36.0908 -79.9025 51° Northeast 418 481 31,000  Level Washington Center
Tue 10:29:49 AM 36.1578 -79.7828 55° Northeast 424 488 31,000  Level Washington Center
Tue 10:30:49 AM 36.2314 -79.6478 56° Northeast 434 499 31,000  Level Washington Center
Tue 10:31:50 AM 36.3000 -79.5250 55° Northeast 434 499 31,000  Level Washington Center
Tue 10:32:51 AM 36.3639 -79.4225 52° Northeast 434 499 31,000 -454 Level Washington Center
Tue 10:33:49 AM 36.4306 -79.2967 57° Northeast 434 499 30,100 -1,210 Descending Washington Center
Tue 10:34:50 AM 36.4989 -79.1758 55° Northeast 434 499 28,600 -1,488 Descending Washington Center
Tue 10:35:50 AM 36.5628 -79.0622 55° Northeast 420 483 27,100 1,200 Descending Washington Center
Tue 10:36:50 AM 36.6242 -78.9539 55° Northeast 405 466 31,000 -1,041 Climbing Washington Center
Tue 10:37:51 AM 36.6903 -78.8272 57° Northeast 390 449 25,000 -3,051 Descending Washington Center
Tue 10:38:48 AM 36.7517 -78.7156 56° Northeast 390 449 25,000 -50 Level Washington Center
Tue 10:39:50 AM 36.8128 -78.6169 52° Northeast 390 449 24,900 -541 Descending Washington Center
Tue 10:40:50 AM 36.8942 -78.5267 42° Northeast 385 443 23,900 -992 Descending Washington Center
Tue 10:41:51 AM 36.9800 -78.4336 41° Northeast 390 449 22,900 -942 Descending Washington Center
Tue 10:42:51 AM 37.0719 -78.3303 42° Northeast 396 456 22,000 -458 Descending Washington Center
Tue 10:43:49 AM 37.1575 -78.2394 40° Northeast 396 456 22,000  Level Washington Center
Tue 10:44:51 AM 37.2281 -78.1639 40° Northeast 396 456 22,000  Level Washington Center
Tue 10:45:49 AM 37.3156 -78.0647 42° Northeast 391 450 22,000  Level Washington Center
Tue 10:46:50 AM 37.3986 -77.9761 40° Northeast 391 450 22,000  Level Washington Center
Tue 10:47:50 AM 37.4778 -77.8842 43° Northeast 391 450 22,000 -99 Level Washington Center
Tue 10:48:51 AM 37.5606 -77.8081 36° Northeast 385 443 21,800 -1,059 Descending Washington Center
Tue 10:49:49 AM 37.6575 -77.7506 25° Northeast 375 432 19,900 -1,916 Descending Washington Center
Tue 10:50:50 AM 37.7500 -77.7008 23° Northeast 369 425 18,000 -1,869 Descending Washington Center
Tue 10:51:51 AM 37.8386 -77.6453 26° Northeast 362 417 16,100 -1,934 Descending Washington Center
Tue 10:52:51 AM 37.9272 -77.5953 24° Northeast 356 410 14,100 -1,950 Descending Washington Center
Tue 10:53:51 AM 38.0133 -77.5447 25° Northeast 346 398 12,200 -1,932 Descending Washington Center
Tue 10:54:49 AM 38.1061 -77.4917 24° Northeast 336 387 10,300 -1,059 Descending Washington Center
Tue 10:55:50 AM 38.1839 -77.4461 25° Northeast 318 366 10,100 -101 Descending Washington Center
Tue 10:56:48 AM 38.2575 -77.4031 25° Northeast 303 349 10,100 -454 Level Washington Center
Tue 10:57:49 AM 38.3333 -77.3600 24° Northeast 296 341 9,200 -1,220 Descending Washington Center
Tue 10:58:51 AM 38.4106 -77.3592 360° North 284 327 7,600 -1,525 Descending Washington Center
Tue 10:59:51 AM 38.4856 -77.3608 359° North 272 313 6,100 -1,271 Descending Washington Center
Tue 11:00:49 AM 38.5606 -77.3653 357° North 266 306 5,100 -706 Descending Washington Center
Tue 11:01:50 AM 38.6356 -77.3644 360° North 271 312 4,700 -541 Descending Washington Center
Tue 11:02:51 AM 38.7086 -77.3608 North 271 312 4,000 -347 Descending Washington Center
Tue 11:03:51 AM 38.7836 -77.3572 North 271 312 4,000  Level Washington Center
Tue 11:05:00 AM 38.8833 -77.3500 North 268 308 4,000  Level Potomac TRACON
Tue 11:06:00 AM 38.9500 -77.3500 360° North 265 305 4,000  Level Potomac TRACON
Tue 11:06:55 AM 39.0167 -77.3500 360° North 229 264 4,000  Level Potomac TRACON
Tue 11:07:55 AM 39.0667 -77.3500 360° North 225 259 4,000  Level Potomac TRACON
Tue 11:08:55 AM 39.1333 -77.3500 360° North 233 268 4,000  Level Potomac TRACON
Tue 11:09:49 AM 39.2000 -77.3500 360° North 230 265 4,000  Level Potomac TRACON
Tue 11:10:49 AM 39.2667 -77.3333 11° North 226 260 4,000  Level Potomac TRACON
Tue 11:11:49 AM 39.3167 -77.3333 360° North 225 259 4,000  Level Potomac TRACON
Tue 11:12:49 AM 39.3333 -77.4000 288° West 226 260 4,000 -500 Level Potomac TRACON
Tue 11:13:49 AM 39.2833 -77.4333 207° Southwest 214 246 3,000 -500 Descending Potomac TRACON
Tue 11:14:49 AM 39.2333 -77.4333 180° South 170 196 3,000  Level Potomac TRACON
Tue 11:15:44 AM 39.1833 -77.4333 180° South 172 198 3,000  Level Potomac TRACON
Tue 11:16:43 AM 39.1500 -77.4333 180° South 175 201 3,000  Level Potomac TRACON
Tue 11:17:43 AM 39.1000 -77.4333 180° South 177 204 3,000 -446 Level Potomac TRACON
Tue 11:18:44 AM 39.0500 -77.4333 180° South 171 197 2,100 -793 Descending Potomac TRACON
Tue 11:19:44 AM 39.0000 -77.4333 180° South 141 162 1,400 -750 Descending Potomac TRACON
Tue 11:20:44 AM 38.9667 -77.4333 180° South 143 165 600 -800 Descending Potomac TRACON

Login

Don't have an account? Register now (free) for customized features, flight alerts, and more!